Time;durP1;ratioP1;P1;durP2;ratioP2;P2;SDS_P1;SDS_P2;PMS_P1;PMS_P2;Temp;Humidity;BMP_temperature;BMP_pressure;BME280_temperature;BME280_humidity;BME280_pressure;Samples;Min_cycle;Max_cycle;Signal;HPM_P1;HPM_P2
2020/12/16 00:00:24;;;;;;;23.60;11.57;;;;;;;5.79;93.76;99038.47;5036402;28;20482;-79
2020/12/16 00:02:50;;;;;;;20.00;11.55;;;;;;;5.76;93.90;99036.91;5053743;28;20049;-79
2020/12/16 00:05:16;;;;;;;24.77;11.93;;;;;;;5.61;93.97;99042.03;5054025;28;20543;-79
2020/12/16 00:07:42;;;;;;;19.27;11.43;;;;;;;5.60;94.03;99047.56;5053890;28;20487;-79
2020/12/16 00:10:11;;;;;;;19.90;12.18;;;;;;;5.60;94.38;99039.47;5053647;28;20075;-79
2020/12/16 00:12:38;;;;;;;28.10;12.48;;;;;;;5.59;94.36;99046.72;5053674;28;20044;-79
2020/12/16 00:15:06;;;;;;;18.65;11.52;;;;;;;5.70;93.99;99045.63;5052839;28;20077;-79
2020/12/16 00:17:33;;;;;;;17.10;11.32;;;;;;;5.64;93.73;99054.34;5053305;28;20049;-78
2020/12/16 00:19:59;;;;;;;17.80;9.68;;;;;;;5.66;94.05;99052.34;5053790;28;20049;-79
2020/12/16 00:22:26;;;;;;;18.50;10.65;;;;;;;5.72;92.90;99048.19;5053649;28;20045;-79
2020/12/16 00:24:52;;;;;;;15.80;9.68;;;;;;;5.47;92.68;99037.19;5053465;28;20049;-79
2020/12/16 00:27:18;;;;;;;18.85;8.52;;;;;;;5.35;92.82;99046.53;5037395;28;20052;-78
2020/12/16 00:29:44;;;;;;;14.10;8.68;;;;;;;5.27;93.61;99053.53;5035602;28;20449;-79
2020/12/16 00:32:12;;;;;;;12.98;8.25;;;;;;;5.23;93.09;99032.44;5042270;28;20045;-79
2020/12/16 00:34:38;;;;;;;16.08;7.13;;;;;;;5.27;92.87;99031.13;5053973;28;20049;-79
2020/12/16 00:37:04;;;;;;;12.98;7.65;;;;;;;5.13;92.50;99035.19;5049000;28;20045;-79
2020/12/16 00:39:31;;;;;;;25.65;8.00;;;;;;;5.01;92.71;99037.25;5051263;28;20045;-79
2020/12/16 00:41:57;;;;;;;16.63;8.00;;;;;;;4.88;93.03;99034.09;5041254;28;20041;-79
2020/12/16 00:44:24;;;;;;;9.40;6.35;;;;;;;4.91;92.68;99040.03;5051275;28;20164;-79
2020/12/16 00:46:50;;;;;;;16.65;7.40;;;;;;;4.83;92.89;99026.44;5050553;28;20048;-79
2020/12/16 00:49:17;;;;;;;15.43;8.13;;;;;;;4.99;92.99;99038.44;5051164;28;20063;-79
2020/12/16 00:51:43;;;;;;;12.32;8.00;;;;;;;4.86;92.96;99045.00;5050659;28;20049;-79
2020/12/16 00:54:09;;;;;;;13.82;8.07;;;;;;;4.72;93.50;99038.28;5047842;28;20056;-79
2020/12/16 00:56:36;;;;;;;88.68;11.05;;;;;;;4.81;93.41;99060.78;5050942;28;20048;-79
2020/12/16 00:59:02;;;;;;;48.10;9.30;;;;;;;4.75;93.62;99056.84;5051184;28;20037;-79
2020/12/16 01:01:29;;;;;;;16.75;8.60;;;;;;;4.79;93.66;99036.69;5051580;28;20044;-79
2020/12/16 01:03:55;;;;;;;41.47;10.50;;;;;;;4.67;93.59;99026.28;5049995;28;20045;-79
2020/12/16 01:06:22;;;;;;;32.63;9.63;;;;;;;4.71;93.98;99033.91;5040580;28;20080;-79
2020/12/16 01:08:49;;;;;;;28.90;10.38;;;;;;;4.84;93.89;99055.09;5046556;28;20064;-79
2020/12/16 01:11:15;;;;;;;45.65;11.30;;;;;;;4.76;94.62;99045.06;5049877;28;20045;-79
2020/12/16 01:13:41;;;;;;;21.35;10.10;;;;;;;4.88;94.51;99055.66;5050878;28;20618;-79
2020/12/16 01:16:07;;;;;;;29.20;11.32;;;;;;;4.88;94.63;99069.97;5049274;28;20045;-79
2020/12/16 01:18:34;;;;;;;46.40;11.98;;;;;;;4.85;94.49;99061.31;5050359;28;20056;-80
2020/12/16 01:21:00;;;;;;;46.25;11.02;;;;;;;4.85;94.30;99061.31;5046753;28;20049;-79
2020/12/16 01:23:27;;;;;;;34.80;9.93;;;;;;;4.83;94.32;99066.03;5051521;28;20057;-79
2020/12/16 01:25:54;;;;;;;16.15;8.75;;;;;;;4.92;94.38;99081.28;5051189;28;20076;-79
2020/12/16 01:28:20;;;;;;;19.70;9.20;;;;;;;4.89;94.48;99076.19;5049658;28;20045;-79
2020/12/16 01:30:46;;;;;;;17.05;9.25;;;;;;;4.83;94.40;99072.25;5050270;28;20053;-80
2020/12/16 01:33:13;;;;;;;14.57;8.23;;;;;;;4.83;94.31;99076.78;5047286;28;20140;-80
2020/12/16 01:35:39;;;;;;;15.25;8.95;;;;;;;4.91;94.23;99096.59;5044691;28;20134;-79
2020/12/16 01:38:05;;;;;;;14.77;8.23;;;;;;;4.79;94.07;99085.19;5050830;28;20053;-80
2020/12/16 01:40:33;;;;;;;18.17;9.55;;;;;;;4.87;94.55;99097.88;5051087;28;20056;-80
2020/12/16 01:42:59;;;;;;;17.75;9.73;;;;;;;4.97;94.33;99103.25;5047806;28;20049;-80
2020/12/16 01:45:26;;;;;;;17.80;9.52;;;;;;;4.87;93.99;99076.34;5043593;28;20106;-79
2020/12/16 01:47:52;;;;;;;15.85;9.65;;;;;;;5.01;93.46;99095.69;5050690;28;20045;-80
2020/12/16 01:50:19;;;;;;;14.35;8.77;;;;;;;4.91;93.32;99085.81;5050694;28;20049;-79
2020/12/16 01:52:47;;;;;;;19.75;9.68;;;;;;;4.90;93.43;99092.19;5050413;28;20045;-79
2020/12/16 01:55:14;;;;;;;39.97;10.63;;;;;;;4.92;92.82;99083.97;5050617;28;20509;-79
2020/12/16 01:57:45;;;;;;;35.25;11.70;;;;;;;4.87;93.21;99081.72;5048179;28;20048;-80
2020/12/16 02:00:13;;;;;;;23.58;12.30;;;;;;;4.88;93.47;99079.91;5050330;28;20048;-79
2020/12/16 02:02:44;;;;;;;30.77;12.05;;;;;;;4.84;93.74;99082.03;5047728;28;20162;-80
2020/12/16 02:05:14;;;;;;;24.20;10.55;;;;;;;4.66;93.95;99071.22;5050956;28;20478;-79
2020/12/16 02:07:44;;;;;;;19.35;10.05;;;;;;;4.77;94.14;99091.69;5049146;28;20528;-79
2020/12/16 02:10:10;;;;;;;19.48;10.57;;;;;;;4.81;94.00;99074.25;5041476;28;20532;-79
2020/12/16 02:12:37;;;;;;;18.75;10.07;;;;;;;4.95;94.00;99091.75;5042386;28;20098;-79
2020/12/16 02:15:04;;;;;;;29.98;11.13;;;;;;;4.88;93.42;99086.13;5052097;28;20053;-78
2020/12/16 02:17:31;;;;;;;36.78;11.27;;;;;;;4.83;93.82;99087.56;5046632;28;20060;-79
2020/12/16 02:19:59;;;;;;;23.52;11.30;;;;;;;4.84;94.35;99086.56;5053927;28;20409;-79
2020/12/16 02:22:26;;;;;;;27.00;11.30;;;;;;;4.86;94.88;99093.50;5052974;28;20045;-78
2020/12/16 02:25:01;;;;;;;24.58;11.88;;;;;;;4.96;94.59;99090.75;5053715;28;20493;-79
2020/12/16 02:27:28;;;;;;;66.32;11.90;;;;;;;5.05;93.81;99089.84;5045285;28;20103;-79
2020/12/16 02:29:54;;;;;;;67.63;11.40;;;;;;;4.90;93.56;99083.28;5053498;28;20097;-79
2020/12/16 02:32:24;;;;;;;68.70;13.15;;;;;;;4.88;93.88;99088.81;5053956;28;20041;-79
2020/12/16 02:34:51;;;;;;;38.40;10.98;;;;;;;4.81;93.90;99085.03;5053624;28;20041;-79
2020/12/16 02:37:17;;;;;;;18.60;10.70;;;;;;;4.79;93.81;99081.66;5048323;28;20122;-78
2020/12/16 02:39:44;;;;;;;21.08;10.48;;;;;;;4.86;93.79;99092.66;5053963;28;20052;-79
2020/12/16 02:42:11;;;;;;;18.13;10.75;;;;;;;4.83;94.17;99069.56;5044440;28;21521;-79
2020/12/16 02:44:38;;;;;;;19.38;11.05;;;;;;;4.85;94.08;99090.94;5037246;28;20049;-79
2020/12/16 02:47:07;;;;;;;15.10;10.65;;;;;;;4.90;94.27;99094.06;5048409;28;20049;-79
2020/12/16 02:49:33;;;;;;;18.48;10.30;;;;;;;4.89;94.36;99101.31;5046360;28;20041;-80
2020/12/16 02:52:00;;;;;;;17.05;9.50;;;;;;;4.88;94.13;99094.22;5051854;28;20045;-79
2020/12/16 02:54:26;;;;;;;16.27;10.07;;;;;;;4.90;94.27;99091.38;5052854;28;20107;-79
2020/12/16 02:56:54;;;;;;;13.95;8.93;;;;;;;4.83;94.25;99080.31;5053694;28;20075;-79
2020/12/16 02:59:24;;;;;;;16.10;9.98;;;;;;;4.93;94.29;99082.97;5052307;28;20049;-79
2020/12/16 03:01:50;;;;;;;19.98;10.05;;;;;;;4.95;94.81;99091.75;5053405;28;20481;-79
2020/12/16 03:04:17;;;;;;;24.70;11.98;;;;;;;5.03;95.40;99089.16;5047423;28;20044;-79
2020/12/16 03:06:47;;;;;;;21.08;12.70;;;;;;;5.18;95.59;99094.00;5054032;28;20056;-79
2020/12/16 03:09:14;;;;;;;28.15;12.88;;;;;;;5.11;95.55;99083.00;5052974;28;20076;-79
2020/12/16 03:11:40;;;;;;;23.40;11.73;;;;;;;5.16;94.97;99091.47;5053689;28;20036;-80
2020/12/16 03:14:07;;;;;;;19.55;10.80;;;;;;;5.16;95.01;99090.63;5052395;28;20068;-79
2020/12/16 03:16:34;;;;;;;19.00;11.38;;;;;;;5.16;95.20;99096.03;5052220;28;20048;-79
2020/12/16 03:19:00;;;;;;;21.80;9.95;;;;;;;5.08;94.93;99077.94;5053317;28;20053;-79
2020/12/16 03:21:27;;;;;;;14.10;8.55;;;;;;;5.03;94.78;99073.00;5053493;28;20040;-79
2020/12/16 03:23:54;;;;;;;19.60;9.88;;;;;;;5.16;95.27;99066.38;5040001;28;20509;-79
2020/12/16 03:26:21;;;;;;;22.05;11.15;;;;;;;5.19;95.36;99080.38;5040476;28;20037;-79
2020/12/16 03:28:47;;;;;;;17.50;9.88;;;;;;;5.15;95.14;99084.41;5052435;28;20057;-79
2020/12/16 03:31:17;;;;;;;18.40;10.18;;;;;;;5.07;94.74;99084.31;5052124;28;20044;-79
2020/12/16 03:33:45;;;;;;;23.38;9.52;;;;;;;4.96;94.94;99075.44;5046152;28;20041;-79
2020/12/16 03:36:13;;;;;;;19.67;10.50;;;;;;;4.91;95.22;99064.28;5052642;28;20076;-79
2020/12/16 03:38:40;;;;;;;16.75;9.32;;;;;;;4.97;95.02;99074.44;5052370;28;20041;-79
2020/12/16 03:41:06;;;;;;;18.33;9.75;;;;;;;5.01;94.62;99079.53;5044317;28;20059;-79
2020/12/16 03:43:32;;;;;;;17.17;9.85;;;;;;;4.90;94.43;99072.50;5043520;28;20060;-79
2020/12/16 03:45:59;;;;;;;18.10;10.27;;;;;;;5.06;94.78;99093.38;5044995;28;20049;-79
2020/12/16 03:48:25;;;;;;;25.13;10.60;;;;;;;4.99;94.64;99087.75;5037309;28;20052;-79
2020/12/16 03:50:52;;;;;;;19.75;9.88;;;;;;;4.97;94.85;99092.47;5047767;28;20045;-79
2020/12/16 03:53:19;;;;;;;28.50;9.73;;;;;;;4.89;94.86;99076.19;5053661;28;20049;-79
2020/12/16 03:55:45;;;;;;;36.05;10.90;;;;;;;4.93;94.54;99072.19;5052172;28;20045;-79
2020/12/16 03:58:11;;;;;;;21.10;10.57;;;;;;;4.99;94.60;99076.16;5034310;28;20045;-79
2020/12/16 04:00:37;;;;;;;31.20;11.48;;;;;;;5.00;94.57;99088.59;5043568;28;20124;-79
2020/12/16 04:03:04;;;;;;;27.98;10.82;;;;;;;5.00;94.64;99093.97;5041426;28;20056;-79
2020/12/16 04:05:30;;;;;;;18.55;10.48;;;;;;;4.92;94.54;99084.84;5045986;28;20099;-79
2020/12/16 04:08:02;;;;;;;22.67;10.40;;;;;;;4.88;94.44;99091.50;5052947;28;20049;-81
2020/12/16 04:10:28;;;;;;;17.92;10.18;;;;;;;4.90;94.93;99094.88;5051841;28;20045;-78
2020/12/16 04:12:54;;;;;;;17.80;10.30;;;;;;;4.96;94.92;99105.06;5048111;28;20475;-79
2020/12/16 04:15:21;;;;;;;19.30;11.38;;;;;;;4.95;94.84;99092.63;5048476;28;20053;-78
2020/12/16 04:17:47;;;;;;;19.13;11.32;;;;;;;4.97;94.72;99081.69;5050764;28;20433;-78
2020/12/16 04:20:13;;;;;;;20.85;10.75;;;;;;;5.15;94.01;99092.50;5048730;28;20071;-78
2020/12/16 04:22:39;;;;;;;17.83;10.80;;;;;;;5.13;93.33;99087.25;5050521;28;20087;-79
2020/12/16 04:25:06;;;;;;;18.83;10.98;;;;;;;5.16;93.34;99091.47;5051532;28;20049;-78
2020/12/16 04:27:33;;;;;;;17.63;10.25;;;;;;;5.03;93.70;99102.63;5047558;28;20045;-78
2020/12/16 04:29:59;;;;;;;19.50;10.52;;;;;;;4.98;93.83;99083.34;5046940;28;20045;-78
2020/12/16 04:32:26;;;;;;;16.58;10.98;;;;;;;5.03;94.10;99091.84;5051939;28;20041;-78
2020/12/16 04:34:52;;;;;;;17.58;9.68;;;;;;;5.05;94.81;99095.22;5049640;28;20848;-78
2020/12/16 04:37:18;;;;;;;15.38;9.23;;;;;;;5.02;94.68;99095.53;5051134;28;20047;-78
2020/12/16 04:39:44;;;;;;;17.95;9.65;;;;;;;4.97;94.45;99093.31;5051268;28;20071;-78
2020/12/16 04:42:12;;;;;;;14.52;9.07;;;;;;;5.03;94.45;99090.97;5046578;28;20056;-78
2020/12/16 04:44:38;;;;;;;23.13;14.32;;;;;;;5.05;94.21;99089.00;5049189;28;20110;-78
2020/12/16 04:47:04;;;;;;;17.45;10.65;;;;;;;4.98;94.25;99094.13;5047122;28;20049;-78
2020/12/16 04:49:30;;;;;;;14.10;8.82;;;;;;;4.89;94.22;99085.13;5050574;28;20414;-78
2020/12/16 04:51:58;;;;;;;18.30;7.88;;;;;;;4.95;94.16;99095.31;5050982;28;20049;-78
2020/12/16 04:54:24;;;;;;;14.55;7.22;;;;;;;4.90;94.20;99096.75;5036331;28;20061;-78
2020/12/16 04:56:51;;;;;;;14.43;8.48;;;;;;;4.91;94.27;99109.22;5051260;28;20088;-78
2020/12/16 04:59:18;;;;;;;15.18;9.10;;;;;;;4.98;94.70;99107.59;5037814;28;20420;-78
2020/12/16 05:01:45;;;;;;;20.40;10.00;;;;;;;4.91;94.44;99099.28;5048951;28;20041;-79
2020/12/16 05:04:11;;;;;;;17.55;9.65;;;;;;;4.97;94.85;99116.72;5046484;28;20084;-83
2020/12/16 05:06:40;;;;;;;14.13;9.13;;;;;;;4.96;94.28;99118.53;5050644;28;20439;-79
2020/12/16 05:09:09;;;;;;;14.90;7.90;;;;;;;4.92;94.89;99109.09;5044775;28;20053;-79
2020/12/16 05:11:43;;;;;;;13.73;8.65;;;;;;;4.87;94.00;99102.44;5046315;28;20051;-80
2020/12/16 05:14:17;;;;;;;16.83;8.43;;;;;;;4.77;94.23;99094.38;5042329;28;20067;-80
2020/12/16 05:17:06;;;;;;;13.35;8.20;;;;;;;4.98;94.81;99123.78;5052962;28;20049;-81
2020/12/16 05:19:34;;;;;;;16.73;9.02;;;;;;;5.02;94.94;99116.25;5045414;28;20052;-81
2020/12/16 05:22:21;;;;;;;15.98;9.45;;;;;;;5.12;94.79;99127.84;5052265;28;20091;-79
2020/12/16 05:24:49;;;;;;;17.10;8.73;;;;;;;5.04;94.54;99125.03;5051191;28;20083;-79
2020/12/16 05:27:21;;;;;;;13.18;7.68;;;;;;;5.00;94.60;99131.69;5039429;28;20049;-79
2020/12/16 05:29:51;;;;;;;17.75;9.20;;;;;;;5.00;94.83;99132.56;5047505;28;20110;-79
2020/12/16 05:32:28;;;;;;;15.38;8.85;;;;;;;4.88;94.72;99113.06;5038348;28;20128;-79
2020/12/16 05:34:56;;;;;;;15.48;9.60;;;;;;;5.04;94.54;99119.63;5049347;28;20235;-79
2020/12/16 05:37:28;;;;;;;19.48;9.35;;;;;;;5.19;94.16;99117.28;5050383;28;20132;-79
2020/12/16 05:39:56;;;;;;;14.98;9.43;;;;;;;4.97;94.62;99104.06;5049460;28;20056;-79
2020/12/16 05:42:24;;;;;;;16.20;9.27;;;;;;;4.98;94.59;99115.69;5048834;28;20053;-79
2020/12/16 05:44:51;;;;;;;15.48;8.95;;;;;;;5.00;94.59;99126.31;5047160;28;20099;-79
2020/12/16 05:47:17;;;;;;;14.85;8.40;;;;;;;4.94;94.77;99136.72;5052902;28;20079;-79
2020/12/16 05:49:45;;;;;;;16.63;9.82;;;;;;;4.93;94.61;99126.91;5052354;28;20218;-79
2020/12/16 05:52:11;;;;;;;19.25;10.77;;;;;;;4.99;94.80;99143.50;5049793;28;20041;-78
2020/12/16 05:54:38;;;;;;;18.08;11.00;;;;;;;4.88;94.24;99134.63;5052738;28;20049;-79
2020/12/16 05:57:17;;;;;;;19.48;10.60;;;;;;;4.89;94.42;99139.00;5044913;28;20048;-79
2020/12/16 06:00:01;;;;;;;19.38;10.85;;;;;;;4.88;94.58;99142.69;5041922;28;20050;-79
2020/12/16 06:02:34;;;;;;;22.92;11.75;;;;;;;4.90;94.37;99146.06;5042923;28;20557;-79
2020/12/16 06:05:02;;;;;;;21.70;11.82;;;;;;;4.86;94.25;99141.13;5048259;28;20068;-79
2020/12/16 06:07:31;;;;;;;21.50;10.73;;;;;;;4.91;94.63;99147.78;5050305;28;20048;-79
2020/12/16 06:09:58;;;;;;;15.38;8.82;;;;;;;5.08;94.29;99161.47;5049828;28;20060;-79
2020/12/16 06:12:29;;;;;;;17.00;9.95;;;;;;;4.89;94.42;99151.63;5050790;28;20041;-79
2020/12/16 06:15:10;;;;;;;17.83;9.95;;;;;;;4.90;94.61;99164.94;5049868;28;20049;-79
2020/12/16 06:17:39;;;;;;;15.52;8.95;;;;;;;4.89;94.53;99165.94;5047803;28;20049;-79
2020/12/16 06:20:09;;;;;;;16.02;9.50;;;;;;;4.92;94.45;99164.78;5050384;28;20059;-79
2020/12/16 06:22:36;;;;;;;15.07;9.38;;;;;;;4.95;94.51;99162.66;5050113;28;20489;-79
2020/12/16 06:25:05;;;;;;;19.88;9.63;;;;;;;4.93;94.49;99175.41;5050112;28;20045;-79
2020/12/16 06:27:38;;;;;;;15.65;9.73;;;;;;;4.94;94.55;99182.50;5043729;28;20061;-79
2020/12/16 06:30:08;;;;;;;20.58;9.20;;;;;;;4.89;94.26;99173.16;5050282;28;20068;-79
2020/12/16 06:32:37;;;;;;;;;;;;;;;5.00;94.30;99169.44;5050545;28;20045;-81
2020/12/16 06:35:04;;;;;;;16.67;9.80;;;;;;;4.91;94.25;99163.94;5045582;28;19921;-79
2020/12/16 06:37:32;;;;;;;15.27;9.23;;;;;;;5.03;94.10;99183.47;5042958;28;20045;-79
2020/12/16 06:39:58;;;;;;;15.63;8.98;;;;;;;4.89;94.19;99165.09;5049945;28;20076;-79
2020/12/16 06:42:32;;;;;;;13.73;8.60;;;;;;;4.96;94.19;99179.66;5050764;28;20053;-79
2020/12/16 06:45:12;;;;;;;14.85;8.07;;;;;;;4.85;94.18;99177.16;5050202;28;20060;-79
2020/12/16 06:47:38;;;;;;;14.73;9.00;;;;;;;4.80;94.46;99169.50;5051179;28;20393;-80
2020/12/16 06:50:22;;;;;;;20.88;9.82;;;;;;;4.97;94.62;99194.84;5052312;28;20049;-79
2020/12/16 06:52:50;;;;;;;18.27;9.55;;;;;;;4.83;94.61;99171.91;5054786;28;20045;-79
2020/12/16 06:55:16;;;;;;;16.98;10.23;;;;;;;4.94;94.78;99190.59;5054640;28;20057;-79
2020/12/16 06:57:47;;;;;;;21.70;10.85;;;;;;;5.03;95.14;99188.00;5053780;28;20041;-80
2020/12/16 07:00:21;;;;;;;20.58;9.30;;;;;;;5.07;94.82;99181.31;5054192;28;20085;-82
2020/12/16 07:02:48;;;;;;;30.08;10.95;;;;;;;5.18;94.57;99182.94;5054310;28;20061;-79
2020/12/16 07:05:45;;;;;;;25.33;10.68;;;;;;;5.25;94.43;99175.97;5054216;28;20087;-79
2020/12/16 07:08:27;;;;;;;18.80;10.02;;;;;;;5.22;94.71;99174.41;5029975;28;20053;-80
2020/12/16 07:10:54;;;;;;;23.00;12.02;;;;;;;5.21;94.76;99161.97;5032081;28;20045;-78
2020/12/16 07:13:29;;;;;;;23.35;11.45;;;;;;;5.34;94.59;99185.00;5035090;28;20544;-79
2020/12/16 07:16:00;;;;;;;28.55;10.95;;;;;;;5.42;94.47;99177.00;5034310;28;20053;-79
2020/12/16 07:18:40;;;;;;;22.05;9.88;;;;;;;5.50;94.56;99186.03;5045972;28;20115;-79
2020/12/16 07:21:31;;;;;;;19.95;10.63;;;;;;;5.47;94.20;99189.03;5053736;28;20045;-79
2020/12/16 07:24:04;;;;;;;21.63;9.43;;;;;;;5.38;94.46;99186.41;5038707;28;20087;-79
2020/12/16 07:26:31;;;;;;;19.25;9.48;;;;;;;5.32;94.36;99190.56;5053611;28;20052;-79
2020/12/16 07:29:00;;;;;;;21.75;8.98;;;;;;;5.36;94.55;99191.97;5053735;28;20128;-79
2020/12/16 07:31:27;;;;;;;27.13;9.23;;;;;;;5.27;94.49;99182.91;5053766;28;20049;-79
2020/12/16 07:33:54;;;;;;;24.33;9.55;;;;;;;5.39;94.30;99201.56;5058980;28;20049;-79
2020/12/16 07:36:21;;;;;;;19.88;10.10;;;;;;;5.36;94.00;99210.81;5053944;28;20076;-79
2020/12/16 07:38:53;;;;;;;22.17;10.38;;;;;;;5.32;93.92;99204.88;5048184;28;20057;-79
2020/12/16 07:41:26;;;;;;;18.77;10.43;;;;;;;5.41;93.83;99203.13;5053696;28;20474;-79
2020/12/16 07:43:52;;;;;;;22.75;9.85;;;;;;;5.41;93.73;99194.19;5053416;28;20041;-79
2020/12/16 07:46:21;;;;;;;21.70;10.57;;;;;;;5.58;93.77;99216.78;5053431;28;20254;-79
2020/12/16 07:48:47;;;;;;;28.77;10.70;;;;;;;5.52;93.80;99214.69;5054043;28;20428;-79
2020/12/16 07:51:14;;;;;;;27.10;11.73;;;;;;;5.47;93.54;99209.78;5053108;28;20045;-79
2020/12/16 07:53:45;;;;;;;24.40;10.65;;;;;;;5.45;93.45;99209.06;5053450;28;20056;-79
2020/12/16 07:56:11;;;;;;;21.25;11.05;;;;;;;5.48;93.33;99203.38;5052543;28;20045;-79
2020/12/16 07:58:38;;;;;;;34.10;13.00;;;;;;;5.57;92.87;99210.56;5053639;28;20382;-79
2020/12/16 08:01:06;;;;;;;27.23;12.25;;;;;;;5.59;92.74;99202.31;5052182;28;20130;-79
2020/12/16 08:03:34;;;;;;;26.42;12.60;;;;;;;5.50;92.47;99187.88;5053388;28;20132;-80
2020/12/16 08:06:00;;;;;;;22.77;11.48;;;;;;;5.50;92.37;99182.50;5052853;28;20080;-80
2020/12/16 08:08:27;;;;;;;22.05;12.40;;;;;;;5.49;92.53;99205.06;5052519;28;20052;-79
2020/12/16 08:10:53;;;;;;;22.00;11.73;;;;;;;5.53;92.36;99195.69;5050916;28;20294;-80
2020/12/16 08:13:23;;;;;;;25.42;12.23;;;;;;;5.45;92.40;99185.66;5044614;28;20041;-80
2020/12/16 08:15:52;;;;;;;23.50;11.98;;;;;;;5.60;92.60;99217.47;5052427;28;20469;-80
2020/12/16 08:18:18;;;;;;;25.85;11.68;;;;;;;5.56;92.43;99218.81;5050478;28;20045;-79
2020/12/16 08:20:45;;;;;;;19.02;10.50;;;;;;;5.49;92.94;99243.69;5049532;28;20049;-81
2020/12/16 08:23:13;;;;;;;21.52;10.80;;;;;;;5.22;93.76;99241.81;5050300;28;20044;-80
2020/12/16 08:25:41;;;;;;;25.30;11.68;;;;;;;5.19;94.12;99257.44;5050873;28;20079;-79
2020/12/16 08:28:08;;;;;;;30.10;12.45;;;;;;;5.14;94.09;99249.78;5050418;28;20049;-79
2020/12/16 08:30:38;;;;;;;25.40;12.55;;;;;;;5.22;94.37;99270.63;5048583;28;20053;-80
2020/12/16 08:33:07;;;;;;;29.27;12.10;;;;;;;5.04;94.09;99236.34;5049458;28;20052;-80
2020/12/16 08:35:37;;;;;;;25.13;11.70;;;;;;;5.12;94.26;99243.72;5048075;28;20045;-80
2020/12/16 08:38:06;;;;;;;29.65;13.82;;;;;;;5.29;94.04;99242.91;5049321;28;20056;-79
2020/12/16 08:40:37;;;;;;;27.98;14.13;;;;;;;5.45;94.37;99252.19;5049243;28;20088;-79
2020/12/16 08:43:17;;;;;;;25.92;13.43;;;;;;;5.45;94.02;99234.19;5052503;28;20068;-79
2020/12/16 08:45:43;;;;;;;24.10;12.05;;;;;;;5.55;93.62;99242.22;5051442;28;20049;-79
2020/12/16 08:48:11;;;;;;;21.90;11.65;;;;;;;5.46;93.56;99226.94;5052257;28;20409;-79
2020/12/16 08:50:38;;;;;;;30.80;13.55;;;;;;;5.62;93.36;99218.19;5052785;28;20049;-79
2020/12/16 08:53:04;;;;;;;20.80;12.90;;;;;;;5.70;92.96;99233.63;5051630;28;20481;-78
2020/12/16 08:55:35;;;;;;;20.13;11.35;;;;;;;5.65;92.88;99232.22;5048955;28;20056;-79
2020/12/16 08:58:01;;;;;;;21.50;11.15;;;;;;;5.80;92.95;99243.34;5049372;28;20143;-79
2020/12/16 09:00:30;;;;;;;20.30;11.55;;;;;;;5.84;92.43;99243.88;5050905;28;20108;-79
2020/12/16 09:03:07;;;;;;;18.65;10.57;;;;;;;5.88;92.30;99244.44;5051469;28;20041;-79
2020/12/16 09:05:37;;;;;;;16.92;10.68;;;;;;;5.96;91.95;99239.09;5051899;28;20485;-79
2020/12/16 09:08:08;;;;;;;22.60;11.95;;;;;;;5.99;91.69;99228.03;5052355;28;20041;-79
2020/12/16 09:10:36;;;;;;;18.50;11.13;;;;;;;6.22;90.95;99243.75;5052048;28;20049;-79
2020/12/16 09:13:13;;;;;;;20.40;12.40;;;;;;;6.27;90.68;99245.00;5051144;28;20041;-80
2020/12/16 09:15:42;;;;;;;20.80;12.68;;;;;;;6.20;90.72;99231.28;5052026;28;20053;-79
2020/12/16 09:18:10;;;;;;;20.05;11.95;;;;;;;6.26;90.46;99253.25;5052231;28;20136;-79
2020/12/16 09:20:38;;;;;;;22.13;12.77;;;;;;;6.32;90.74;99258.91;5052083;28;20573;-79
2020/12/16 09:23:05;;;;;;;22.00;12.73;;;;;;;6.48;90.26;99270.84;5052133;28;20041;-79
2020/12/16 09:25:32;;;;;;;24.55;12.35;;;;;;;6.43;90.12;99252.41;5052336;28;20045;-81
2020/12/16 09:28:00;;;;;;;20.65;13.05;;;;;;;6.60;89.77;99276.84;5051908;28;20060;-79
2020/12/16 09:30:27;;;;;;;19.92;11.93;;;;;;;6.45;89.64;99246.84;5034084;28;20052;-80
2020/12/16 09:32:54;;;;;;;16.75;10.80;;;;;;;6.58;89.02;99259.94;5051542;28;20052;-79
2020/12/16 09:35:22;;;;;;;21.00;11.82;;;;;;;6.62;88.98;99264.00;5051712;28;20045;-79
2020/12/16 09:37:50;;;;;;;21.42;12.15;;;;;;;6.68;89.24;99261.53;5052412;28;20501;-79
2020/12/16 09:40:17;;;;;;;22.15;12.60;;;;;;;6.64;89.73;99254.75;5042900;28;20508;-79
2020/12/16 09:42:55;;;;;;;22.70;11.75;;;;;;;6.72;89.27;99270.19;5051746;28;20049;-79
2020/12/16 09:45:22;;;;;;;22.40;12.68;;;;;;;6.72;89.67;99264.78;5051286;28;20072;-79
2020/12/16 09:47:50;;;;;;;25.00;13.07;;;;;;;6.79;89.67;99264.97;5051477;28;20048;-79
2020/12/16 09:50:17;;;;;;;24.23;13.02;;;;;;;6.98;89.17;99262.06;5039734;28;20044;-79
2020/12/16 09:52:43;;;;;;;21.95;12.82;;;;;;;7.07;88.64;99263.81;5051965;28;20052;-79
2020/12/16 09:55:16;;;;;;;18.88;12.32;;;;;;;7.03;88.47;99257.03;5050541;28;20060;-80
2020/12/16 09:57:43;;;;;;;22.83;12.55;;;;;;;7.08;88.87;99243.88;5051689;28;20049;-79
2020/12/16 10:00:10;;;;;;;20.08;12.35;;;;;;;7.07;88.43;99235.94;5052031;28;20107;-80
2020/12/16 10:02:37;;;;;;;19.77;11.75;;;;;;;7.08;88.83;99243.06;5050902;28;20516;-79
2020/12/16 10:05:03;;;;;;;20.25;12.77;;;;;;;7.24;89.51;99258.50;5047800;28;20048;-79
2020/12/16 10:07:33;;;;;;;21.85;13.20;;;;;;;7.20;88.71;99232.81;5040672;28;20037;-79
2020/12/16 10:10:00;;;;;;;21.50;12.10;;;;;;;7.34;87.81;99255.69;5051061;28;20049;-79
2020/12/16 10:12:27;;;;;;;21.88;12.38;;;;;;;7.40;87.34;99255.03;5051167;28;20086;-79
2020/12/16 10:14:53;;;;;;;18.38;11.13;;;;;;;7.33;87.87;99243.16;5050584;28;20083;-79
2020/12/16 10:17:21;;;;;;;21.27;12.50;;;;;;;7.46;88.27;99243.56;5050836;28;20049;-79
2020/12/16 10:19:48;;;;;;;24.77;13.98;;;;;;;7.49;88.87;99232.41;5050562;28;20098;-79
2020/12/16 10:22:15;;;;;;;22.25;12.65;;;;;;;7.53;88.31;99224.84;5051714;28;20147;-80
2020/12/16 10:24:41;;;;;;;25.45;13.40;;;;;;;7.62;87.52;99213.84;5052918;28;20064;-80
2020/12/16 10:27:08;;;;;;;25.70;14.00;;;;;;;7.63;88.17;99217.41;5055192;28;20052;-79
2020/12/16 10:29:36;;;;;;;22.20;12.35;;;;;;;7.68;87.19;99214.19;5054764;28;20474;-79
2020/12/16 10:32:02;;;;;;;21.63;12.07;;;;;;;7.75;85.89;99213.41;5055590;28;20045;-80
2020/12/16 10:34:29;;;;;;;23.25;12.82;;;;;;;7.87;86.97;99230.16;5054513;28;20055;-79
2020/12/16 10:36:56;;;;;;;23.10;11.85;;;;;;;7.83;86.95;99234.22;5054848;28;20123;-79
2020/12/16 10:39:22;;;;;;;22.65;11.70;;;;;;;7.70;86.71;99233.84;5054610;28;20053;-79
2020/12/16 10:41:50;;;;;;;20.70;11.73;;;;;;;7.61;87.76;99219.44;5041196;28;20045;-79
2020/12/16 10:44:16;;;;;;;22.48;12.57;;;;;;;7.72;87.50;99223.69;5053884;28;20057;-79
2020/12/16 10:46:45;;;;;;;19.50;11.05;;;;;;;7.80;86.76;99216.44;5054873;28;20045;-79
2020/12/16 10:49:12;;;;;;;20.13;11.38;;;;;;;7.75;87.05;99213.41;5055002;28;20049;-79
2020/12/16 10:51:38;;;;;;;20.05;11.38;;;;;;;7.74;87.37;99218.97;5054275;28;20045;-79
2020/12/16 10:54:05;;;;;;;21.00;11.88;;;;;;;7.66;87.76;99206.25;5054463;28;20045;-79
2020/12/16 10:56:32;;;;;;;23.55;11.68;;;;;;;7.77;87.43;99210.53;5054171;28;20045;-79
2020/12/16 10:58:58;;;;;;;23.38;13.05;;;;;;;7.65;87.60;99199.16;5054639;28;20103;-79
2020/12/16 11:01:25;;;;;;;17.67;11.30;;;;;;;7.70;87.27;99194.09;5054226;28;20064;-79
2020/12/16 11:03:52;;;;;;;22.58;10.95;;;;;;;7.89;86.58;99190.25;5054523;28;20045;-79
2020/12/16 11:06:18;;;;;;;20.27;11.30;;;;;;;7.88;87.23;99185.84;5054128;28;20041;-79
2020/12/16 11:08:44;;;;;;;22.45;11.55;;;;;;;8.03;87.01;99202.25;5050781;28;20053;-79
2020/12/16 11:11:11;;;;;;;22.95;12.15;;;;;;;8.14;86.89;99210.06;5054464;28;20057;-79
2020/12/16 11:13:37;;;;;;;19.33;10.95;;;;;;;8.20;86.73;99213.09;5054001;28;20496;-79
2020/12/16 11:16:04;;;;;;;20.55;11.38;;;;;;;8.29;86.90;99203.97;5049405;28;20044;-79
2020/12/16 11:18:31;;;;;;;25.88;11.98;;;;;;;8.46;85.81;99189.44;5053728;28;20045;-79
2020/12/16 11:20:57;;;;;;;25.13;10.85;;;;;;;8.59;85.96;99197.03;5054043;28;20052;-79
2020/12/16 11:23:26;;;;;;;20.95;10.85;;;;;;;8.55;85.41;99193.00;5054703;28;20045;-80
2020/12/16 11:25:54;;;;;;;21.13;11.23;;;;;;;8.62;85.45;99203.97;5037735;28;20617;-79
2020/12/16 11:28:20;;;;;;;19.95;10.98;;;;;;;8.58;85.11;99192.66;5054387;28;20045;-79
2020/12/16 11:30:47;;;;;;;20.17;10.25;;;;;;;8.70;85.85;99179.56;5053159;28;20041;-78
2020/12/16 11:33:14;;;;;;;25.45;11.60;;;;;;;8.83;84.83;99189.88;5054298;28;20048;-79